sensor_id;sensor_type;location;lat;lon;timestamp;temperature;humidity
55812;DHT22;41742;52.048;6.092;2022-12-08T00:02:17;3.00;99.90
55812;DHT22;41742;52.048;6.092;2022-12-08T00:04:43;3.00;99.90
55812;DHT22;41742;52.048;6.092;2022-12-08T00:07:27;3.00;99.90
55812;DHT22;41742;52.048;6.092;2022-12-08T00:10:11;3.00;99.90
55812;DHT22;41742;52.048;6.092;2022-12-08T00:12:37;3.00;99.90
55812;DHT22;41742;52.048;6.092;2022-12-08T00:15:03;3.00;99.90
55812;DHT22;41742;52.048;6.092;2022-12-08T00:17:28;3.00;99.90
55812;DHT22;41742;52.048;6.092;2022-12-08T00:19:54;3.00;99.90
55812;DHT22;41742;52.048;6.092;2022-12-08T00:22:20;3.10;99.90
55812;DHT22;41742;52.048;6.092;2022-12-08T00:24:45;3.10;99.90
55812;DHT22;41742;52.048;6.092;2022-12-08T00:27:13;3.10;99.90
55812;DHT22;41742;52.048;6.092;2022-12-08T00:29:38;3.00;99.90
55812;DHT22;41742;52.048;6.092;2022-12-08T00:32:05;3.10;99.90
55812;DHT22;41742;52.048;6.092;2022-12-08T00:34:31;3.10;99.90
55812;DHT22;41742;52.048;6.092;2022-12-08T00:36:57;3.10;99.90
55812;DHT22;41742;52.048;6.092;2022-12-08T00:39:23;3.10;99.90
55812;DHT22;41742;52.048;6.092;2022-12-08T00:41:48;3.20;99.90
55812;DHT22;41742;52.048;6.092;2022-12-08T00:44:33;3.20;99.90
55812;DHT22;41742;52.048;6.092;2022-12-08T00:46:58;3.10;99.90
55812;DHT22;41742;52.048;6.092;2022-12-08T00:49:24;3.10;99.90
55812;DHT22;41742;52.048;6.092;2022-12-08T00:51:50;3.20;99.90
55812;DHT22;41742;52.048;6.092;2022-12-08T00:54:16;3.20;99.90
55812;DHT22;41742;52.048;6.092;2022-12-08T00:56:42;3.20;99.90
55812;DHT22;41742;52.048;6.092;2022-12-08T00:59:08;3.30;99.90
55812;DHT22;41742;52.048;6.092;2022-12-08T01:01:35;3.20;99.90
55812;DHT22;41742;52.048;6.092;2022-12-08T01:04:09;3.20;99.90
55812;DHT22;41742;52.048;6.092;2022-12-08T01:06:37;3.30;99.90
55812;DHT22;41742;52.048;6.092;2022-12-08T01:09:04;3.30;99.90
55812;DHT22;41742;52.048;6.092;2022-12-08T01:11:30;3.30;99.90
55812;DHT22;41742;52.048;6.092;2022-12-08T01:13:56;3.30;99.90
55812;DHT22;41742;52.048;6.092;2022-12-08T01:16:25;3.40;99.90
55812;DHT22;41742;52.048;6.092;2022-12-08T01:18:52;3.40;99.90
55812;DHT22;41742;52.048;6.092;2022-12-08T01:21:18;3.40;99.90
55812;DHT22;41742;52.048;6.092;2022-12-08T01:23:44;3.40;99.90
55812;DHT22;41742;52.048;6.092;2022-12-08T01:26:11;3.40;99.90
55812;DHT22;41742;52.048;6.092;2022-12-08T01:28:38;3.40;99.90
55812;DHT22;41742;52.048;6.092;2022-12-08T01:31:03;3.50;99.90
55812;DHT22;41742;52.048;6.092;2022-12-08T01:33:30;3.50;99.90
55812;DHT22;41742;52.048;6.092;2022-12-08T01:35:58;3.50;99.90
55812;DHT22;41742;52.048;6.092;2022-12-08T01:38:26;3.50;99.90
55812;DHT22;41742;52.048;6.092;2022-12-08T01:40:52;3.50;99.90
55812;DHT22;41742;52.048;6.092;2022-12-08T01:43:19;3.50;99.90
55812;DHT22;41742;52.048;6.092;2022-12-08T01:45:45;3.50;99.90
55812;DHT22;41742;52.048;6.092;2022-12-08T01:48:21;3.50;99.90
55812;DHT22;41742;52.048;6.092;2022-12-08T01:50:48;3.50;99.90
55812;DHT22;41742;52.048;6.092;2022-12-08T01:53:23;3.50;99.90
55812;DHT22;41742;52.048;6.092;2022-12-08T01:56:14;3.50;99.90
55812;DHT22;41742;52.048;6.092;2022-12-08T01:58:46;3.50;99.90
55812;DHT22;41742;52.048;6.092;2022-12-08T02:01:12;3.50;99.90
55812;DHT22;41742;52.048;6.092;2022-12-08T02:06:10;3.50;99.90
55812;DHT22;41742;52.048;6.092;2022-12-08T02:08:38;3.50;99.90
55812;DHT22;41742;52.048;6.092;2022-12-08T02:11:05;3.60;99.90
55812;DHT22;41742;52.048;6.092;2022-12-08T02:13:31;3.50;99.90
55812;DHT22;41742;52.048;6.092;2022-12-08T02:16:11;3.50;99.90
55812;DHT22;41742;52.048;6.092;2022-12-08T02:18:53;3.50;99.90
55812;DHT22;41742;52.048;6.092;2022-12-08T02:24:37;3.60;99.90
55812;DHT22;41742;52.048;6.092;2022-12-08T02:35:33;3.60;99.90
55812;DHT22;41742;52.048;6.092;2022-12-08T02:43:55;3.60;99.90
55812;DHT22;41742;52.048;6.092;2022-12-08T02:46:30;3.60;99.90
55812;DHT22;41742;52.048;6.092;2022-12-08T02:48:58;3.60;99.90
55812;DHT22;41742;52.048;6.092;2022-12-08T02:51:24;3.60;99.90
55812;DHT22;41742;52.048;6.092;2022-12-08T02:53:51;3.70;99.90
55812;DHT22;41742;52.048;6.092;2022-12-08T03:07:28;3.70;99.90
55812;DHT22;41742;52.048;6.092;2022-12-08T03:10:10;3.70;99.90
55812;DHT22;41742;52.048;6.092;2022-12-08T03:12:44;3.70;99.90
55812;DHT22;41742;52.048;6.092;2022-12-08T03:15:15;3.70;99.90
55812;DHT22;41742;52.048;6.092;2022-12-08T03:17:45;3.60;99.90
55812;DHT22;41742;52.048;6.092;2022-12-08T03:20:15;3.60;99.90
55812;DHT22;41742;52.048;6.092;2022-12-08T03:22:44;3.70;99.90
55812;DHT22;41742;52.048;6.092;2022-12-08T03:25:14;3.60;99.90
55812;DHT22;41742;52.048;6.092;2022-12-08T03:27:42;3.70;99.90
55812;DHT22;41742;52.048;6.092;2022-12-08T03:30:08;3.70;99.90
55812;DHT22;41742;52.048;6.092;2022-12-08T03:35:07;3.70;99.90
55812;DHT22;41742;52.048;6.092;2022-12-08T03:37:34;3.70;99.90
55812;DHT22;41742;52.048;6.092;2022-12-08T03:40:02;3.60;99.90
55812;DHT22;41742;52.048;6.092;2022-12-08T03:42:27;3.60;99.90
55812;DHT22;41742;52.048;6.092;2022-12-08T03:44:53;3.70;99.90
55812;DHT22;41742;52.048;6.092;2022-12-08T03:47:18;3.60;99.90
55812;DHT22;41742;52.048;6.092;2022-12-08T03:49:44;3.70;99.90
55812;DHT22;41742;52.048;6.092;2022-12-08T03:52:09;3.70;99.90
55812;DHT22;41742;52.048;6.092;2022-12-08T03:54:35;3.70;99.90
55812;DHT22;41742;52.048;6.092;2022-12-08T03:57:01;3.70;99.90
55812;DHT22;41742;52.048;6.092;2022-12-08T03:59:26;3.70;99.90
55812;DHT22;41742;52.048;6.092;2022-12-08T04:01:52;3.70;99.90
55812;DHT22;41742;52.048;6.092;2022-12-08T04:04:17;3.80;99.90
55812;DHT22;41742;52.048;6.092;2022-12-08T04:06:43;3.80;99.90
55812;DHT22;41742;52.048;6.092;2022-12-08T04:09:09;3.80;99.90
55812;DHT22;41742;52.048;6.092;2022-12-08T04:11:34;3.80;99.90
55812;DHT22;41742;52.048;6.092;2022-12-08T04:14:00;3.80;99.90
55812;DHT22;41742;52.048;6.092;2022-12-08T04:16:25;3.80;99.90
55812;DHT22;41742;52.048;6.092;2022-12-08T04:18:52;3.80;99.90
55812;DHT22;41742;52.048;6.092;2022-12-08T04:21:18;3.80;99.90
55812;DHT22;41742;52.048;6.092;2022-12-08T04:23:44;3.80;99.90
55812;DHT22;41742;52.048;6.092;2022-12-08T04:26:11;3.80;99.90
55812;DHT22;41742;52.048;6.092;2022-12-08T04:28:37;3.80;99.90
55812;DHT22;41742;52.048;6.092;2022-12-08T04:31:03;3.80;99.90
55812;DHT22;41742;52.048;6.092;2022-12-08T04:33:29;3.80;99.90
55812;DHT22;41742;52.048;6.092;2022-12-08T04:35:55;3.80;99.90
55812;DHT22;41742;52.048;6.092;2022-12-08T04:38:20;3.80;99.90
55812;DHT22;41742;52.048;6.092;2022-12-08T04:40:46;3.80;99.90
55812;DHT22;41742;52.048;6.092;2022-12-08T04:43:11;3.80;99.90
55812;DHT22;41742;52.048;6.092;2022-12-08T04:45:41;3.70;99.90
55812;DHT22;41742;52.048;6.092;2022-12-08T04:48:07;3.70;99.90
55812;DHT22;41742;52.048;6.092;2022-12-08T04:50:34;3.70;99.90
55812;DHT22;41742;52.048;6.092;2022-12-08T04:52:59;3.70;99.90
55812;DHT22;41742;52.048;6.092;2022-12-08T04:55:25;3.70;99.90
55812;DHT22;41742;52.048;6.092;2022-12-08T04:57:50;3.70;99.90
55812;DHT22;41742;52.048;6.092;2022-12-08T05:00:17;3.70;99.90
55812;DHT22;41742;52.048;6.092;2022-12-08T05:02:42;3.70;99.90
55812;DHT22;41742;52.048;6.092;2022-12-08T05:05:08;3.60;99.90
55812;DHT22;41742;52.048;6.092;2022-12-08T05:07:34;3.60;99.90
55812;DHT22;41742;52.048;6.092;2022-12-08T05:10:00;3.60;99.90
55812;DHT22;41742;52.048;6.092;2022-12-08T05:12:26;3.60;99.90
55812;DHT22;41742;52.048;6.092;2022-12-08T05:14:51;3.60;99.90
55812;DHT22;41742;52.048;6.092;2022-12-08T05:17:18;3.60;99.90
55812;DHT22;41742;52.048;6.092;2022-12-08T05:19:43;3.60;99.90
55812;DHT22;41742;52.048;6.092;2022-12-08T05:22:09;3.50;99.90
55812;DHT22;41742;52.048;6.092;2022-12-08T05:24:35;3.50;99.90
55812;DHT22;41742;52.048;6.092;2022-12-08T05:27:01;3.50;99.90
55812;DHT22;41742;52.048;6.092;2022-12-08T05:29:27;3.50;99.90
55812;DHT22;41742;52.048;6.092;2022-12-08T05:31:52;3.50;99.90
55812;DHT22;41742;52.048;6.092;2022-12-08T05:34:18;3.50;99.90
55812;DHT22;41742;52.048;6.092;2022-12-08T05:36:44;3.50;99.90
55812;DHT22;41742;52.048;6.092;2022-12-08T05:39:13;3.50;99.90
55812;DHT22;41742;52.048;6.092;2022-12-08T05:41:39;3.50;99.90
55812;DHT22;41742;52.048;6.092;2022-12-08T05:44:05;3.50;99.90
55812;DHT22;41742;52.048;6.092;2022-12-08T05:46:32;3.50;99.90
55812;DHT22;41742;52.048;6.092;2022-12-08T05:49:01;3.60;99.90
55812;DHT22;41742;52.048;6.092;2022-12-08T05:51:28;3.60;99.90
55812;DHT22;41742;52.048;6.092;2022-12-08T05:53:54;3.60;99.90
55812;DHT22;41742;52.048;6.092;2022-12-08T05:56:20;3.60;99.90
55812;DHT22;41742;52.048;6.092;2022-12-08T05:58:46;3.60;99.90
55812;DHT22;41742;52.048;6.092;2022-12-08T06:01:29;3.60;99.90
55812;DHT22;41742;52.048;6.092;2022-12-08T06:03:57;3.60;99.90
55812;DHT22;41742;52.048;6.092;2022-12-08T06:06:23;3.60;99.90
55812;DHT22;41742;52.048;6.092;2022-12-08T06:08:48;3.60;99.90
55812;DHT22;41742;52.048;6.092;2022-12-08T06:11:23;3.50;99.90
55812;DHT22;41742;52.048;6.092;2022-12-08T06:13:49;3.60;99.90
55812;DHT22;41742;52.048;6.092;2022-12-08T06:16:15;3.60;99.90
55812;DHT22;41742;52.048;6.092;2022-12-08T06:18:41;3.60;99.90
55812;DHT22;41742;52.048;6.092;2022-12-08T06:21:10;3.60;99.90
55812;DHT22;41742;52.048;6.092;2022-12-08T06:23:36;3.50;99.90
55812;DHT22;41742;52.048;6.092;2022-12-08T06:26:04;3.50;99.90
55812;DHT22;41742;52.048;6.092;2022-12-08T06:28:30;3.50;99.90
55812;DHT22;41742;52.048;6.092;2022-12-08T06:30:56;3.60;99.90
55812;DHT22;41742;52.048;6.092;2022-12-08T06:33:23;3.60;99.90
55812;DHT22;41742;52.048;6.092;2022-12-08T06:35:48;3.60;99.90
55812;DHT22;41742;52.048;6.092;2022-12-08T06:38:14;3.60;99.90
55812;DHT22;41742;52.048;6.092;2022-12-08T06:40:40;3.50;99.90
55812;DHT22;41742;52.048;6.092;2022-12-08T06:43:05;3.50;99.90
55812;DHT22;41742;52.048;6.092;2022-12-08T06:45:31;3.50;99.90
55812;DHT22;41742;52.048;6.092;2022-12-08T06:47:57;3.50;99.90
55812;DHT22;41742;52.048;6.092;2022-12-08T06:50:22;3.40;99.90
55812;DHT22;41742;52.048;6.092;2022-12-08T06:52:48;3.40;99.90
55812;DHT22;41742;52.048;6.092;2022-12-08T06:55:13;3.50;99.90
55812;DHT22;41742;52.048;6.092;2022-12-08T06:57:39;3.40;99.90
55812;DHT22;41742;52.048;6.092;2022-12-08T07:00:05;3.40;99.90
55812;DHT22;41742;52.048;6.092;2022-12-08T07:02:31;3.50;99.90
55812;DHT22;41742;52.048;6.092;2022-12-08T07:04:57;3.50;99.90
55812;DHT22;41742;52.048;6.092;2022-12-08T07:07:23;3.40;99.90
55812;DHT22;41742;52.048;6.092;2022-12-08T07:09:49;3.40;99.90
55812;DHT22;41742;52.048;6.092;2022-12-08T07:12:14;3.40;99.90
55812;DHT22;41742;52.048;6.092;2022-12-08T07:14:40;3.40;99.90
55812;DHT22;41742;52.048;6.092;2022-12-08T07:17:06;3.40;99.90
55812;DHT22;41742;52.048;6.092;2022-12-08T07:19:31;3.40;99.90
55812;DHT22;41742;52.048;6.092;2022-12-08T07:21:57;3.40;99.90
55812;DHT22;41742;52.048;6.092;2022-12-08T07:24:23;3.30;99.90
55812;DHT22;41742;52.048;6.092;2022-12-08T07:26:49;3.30;99.90
55812;DHT22;41742;52.048;6.092;2022-12-08T07:29:14;3.40;99.90
55812;DHT22;41742;52.048;6.092;2022-12-08T07:31:40;3.30;99.90
55812;DHT22;41742;52.048;6.092;2022-12-08T07:34:05;3.30;99.90
55812;DHT22;41742;52.048;6.092;2022-12-08T07:36:31;3.30;99.90
55812;DHT22;41742;52.048;6.092;2022-12-08T07:38:57;3.30;99.90
55812;DHT22;41742;52.048;6.092;2022-12-08T07:41:24;3.30;99.90
55812;DHT22;41742;52.048;6.092;2022-12-08T07:43:51;3.30;99.90
55812;DHT22;41742;52.048;6.092;2022-12-08T07:46:19;3.30;99.90
55812;DHT22;41742;52.048;6.092;2022-12-08T07:48:46;3.20;99.90
55812;DHT22;41742;52.048;6.092;2022-12-08T07:51:13;3.20;99.90
55812;DHT22;41742;52.048;6.092;2022-12-08T07:53:40;3.20;99.90
55812;DHT22;41742;52.048;6.092;2022-12-08T07:56:07;3.20;99.90
55812;DHT22;41742;52.048;6.092;2022-12-08T07:58:33;3.30;99.90
55812;DHT22;41742;52.048;6.092;2022-12-08T08:00:59;3.30;99.90
55812;DHT22;41742;52.048;6.092;2022-12-08T08:03:24;3.30;99.90
55812;DHT22;41742;52.048;6.092;2022-12-08T08:05:50;3.30;99.90
55812;DHT22;41742;52.048;6.092;2022-12-08T08:08:16;3.30;99.90
55812;DHT22;41742;52.048;6.092;2022-12-08T08:10:43;3.30;99.90
55812;DHT22;41742;52.048;6.092;2022-12-08T08:13:09;3.20;99.90
55812;DHT22;41742;52.048;6.092;2022-12-08T08:15:35;3.20;99.90
55812;DHT22;41742;52.048;6.092;2022-12-08T08:18:01;3.20;99.90
55812;DHT22;41742;52.048;6.092;2022-12-08T08:20:26;3.20;99.90
55812;DHT22;41742;52.048;6.092;2022-12-08T08:22:52;3.20;99.90
55812;DHT22;41742;52.048;6.092;2022-12-08T08:25:19;3.30;99.90
55812;DHT22;41742;52.048;6.092;2022-12-08T08:27:47;3.30;99.90
55812;DHT22;41742;52.048;6.092;2022-12-08T08:30:13;3.30;99.90
55812;DHT22;41742;52.048;6.092;2022-12-08T08:32:39;3.30;99.90
55812;DHT22;41742;52.048;6.092;2022-12-08T08:35:05;3.30;99.90
55812;DHT22;41742;52.048;6.092;2022-12-08T08:37:31;3.30;99.90
55812;DHT22;41742;52.048;6.092;2022-12-08T08:39:57;3.30;99.90
55812;DHT22;41742;52.048;6.092;2022-12-08T08:42:22;3.30;99.90
55812;DHT22;41742;52.048;6.092;2022-12-08T08:44:48;3.30;99.90
55812;DHT22;41742;52.048;6.092;2022-12-08T08:47:13;3.30;99.90
55812;DHT22;41742;52.048;6.092;2022-12-08T08:49:40;3.30;99.90
55812;DHT22;41742;52.048;6.092;2022-12-08T08:52:06;3.30;99.90
55812;DHT22;41742;52.048;6.092;2022-12-08T08:54:31;3.30;99.90
55812;DHT22;41742;52.048;6.092;2022-12-08T08:56:58;3.30;99.90
55812;DHT22;41742;52.048;6.092;2022-12-08T08:59:25;3.30;99.90
55812;DHT22;41742;52.048;6.092;2022-12-08T09:01:50;3.30;99.90
55812;DHT22;41742;52.048;6.092;2022-12-08T09:04:16;3.30;99.90
55812;DHT22;41742;52.048;6.092;2022-12-08T09:06:42;3.40;99.90
55812;DHT22;41742;52.048;6.092;2022-12-08T09:09:09;3.40;99.90
55812;DHT22;41742;52.048;6.092;2022-12-08T09:11:35;3.40;99.90
55812;DHT22;41742;52.048;6.092;2022-12-08T09:14:00;3.40;99.90
55812;DHT22;41742;52.048;6.092;2022-12-08T09:16:26;3.40;99.90
55812;DHT22;41742;52.048;6.092;2022-12-08T09:18:52;3.40;99.90
55812;DHT22;41742;52.048;6.092;2022-12-08T09:21:21;3.40;99.90
55812;DHT22;41742;52.048;6.092;2022-12-08T09:23:49;3.50;99.90
55812;DHT22;41742;52.048;6.092;2022-12-08T09:26:14;3.50;99.90
55812;DHT22;41742;52.048;6.092;2022-12-08T09:28:40;3.50;99.90
55812;DHT22;41742;52.048;6.092;2022-12-08T09:31:14;3.50;99.90
55812;DHT22;41742;52.048;6.092;2022-12-08T09:33:40;3.50;99.90
55812;DHT22;41742;52.048;6.092;2022-12-08T09:36:06;3.60;99.90
55812;DHT22;41742;52.048;6.092;2022-12-08T09:38:32;3.50;99.90
55812;DHT22;41742;52.048;6.092;2022-12-08T09:40:59;3.60;99.90
55812;DHT22;41742;52.048;6.092;2022-12-08T09:46:09;3.60;99.90
55812;DHT22;41742;52.048;6.092;2022-12-08T09:48:39;3.60;99.90
55812;DHT22;41742;52.048;6.092;2022-12-08T09:51:08;3.60;99.90
55812;DHT22;41742;52.048;6.092;2022-12-08T09:53:43;3.60;99.90
55812;DHT22;41742;52.048;6.092;2022-12-08T09:56:20;3.60;99.90
55812;DHT22;41742;52.048;6.092;2022-12-08T09:58:50;3.60;99.90
55812;DHT22;41742;52.048;6.092;2022-12-08T10:01:21;3.70;99.90
55812;DHT22;41742;52.048;6.092;2022-12-08T10:03:47;3.70;99.90
55812;DHT22;41742;52.048;6.092;2022-12-08T10:06:38;3.70;99.90
55812;DHT22;41742;52.048;6.092;2022-12-08T10:17:59;3.80;99.90
55812;DHT22;41742;52.048;6.092;2022-12-08T10:20:36;3.80;99.90
55812;DHT22;41742;52.048;6.092;2022-12-08T10:23:12;3.80;99.90
55812;DHT22;41742;52.048;6.092;2022-12-08T10:25:48;3.80;99.90
55812;DHT22;41742;52.048;6.092;2022-12-08T10:28:14;3.90;99.90
55812;DHT22;41742;52.048;6.092;2022-12-08T10:30:40;3.90;99.90
55812;DHT22;41742;52.048;6.092;2022-12-08T10:33:13;3.90;99.90
55812;DHT22;41742;52.048;6.092;2022-12-08T10:35:52;3.90;99.90
55812;DHT22;41742;52.048;6.092;2022-12-08T10:38:28;3.80;99.90
55812;DHT22;41742;52.048;6.092;2022-12-08T10:41:02;3.90;99.90
55812;DHT22;41742;52.048;6.092;2022-12-08T10:43:29;3.80;99.90
55812;DHT22;41742;52.048;6.092;2022-12-08T10:48:48;3.90;99.90
55812;DHT22;41742;52.048;6.092;2022-12-08T10:51:41;3.90;99.90
55812;DHT22;41742;52.048;6.092;2022-12-08T10:54:27;3.90;99.90
55812;DHT22;41742;52.048;6.092;2022-12-08T10:56:55;3.90;99.90
55812;DHT22;41742;52.048;6.092;2022-12-08T10:59:21;3.80;99.90
55812;DHT22;41742;52.048;6.092;2022-12-08T11:01:50;3.80;99.90
55812;DHT22;41742;52.048;6.092;2022-12-08T11:04:22;3.90;99.90
55812;DHT22;41742;52.048;6.092;2022-12-08T11:06:49;3.80;99.90
55812;DHT22;41742;52.048;6.092;2022-12-08T11:14:24;3.80;99.90
55812;DHT22;41742;52.048;6.092;2022-12-08T11:16:52;3.90;99.90
55812;DHT22;41742;52.048;6.092;2022-12-08T11:19:20;3.90;99.90
55812;DHT22;41742;52.048;6.092;2022-12-08T11:21:50;3.80;99.90
55812;DHT22;41742;52.048;6.092;2022-12-08T11:24:25;3.90;99.90
55812;DHT22;41742;52.048;6.092;2022-12-08T11:29:17;3.90;99.90
55812;DHT22;41742;52.048;6.092;2022-12-08T11:31:47;3.80;99.90
55812;DHT22;41742;52.048;6.092;2022-12-08T11:34:35;3.90;99.90
55812;DHT22;41742;52.048;6.092;2022-12-08T11:37:04;3.90;99.90
55812;DHT22;41742;52.048;6.092;2022-12-08T11:39:33;3.90;99.90
55812;DHT22;41742;52.048;6.092;2022-12-08T11:42:02;3.90;99.90
55812;DHT22;41742;52.048;6.092;2022-12-08T11:44:49;3.90;99.90
55812;DHT22;41742;52.048;6.092;2022-12-08T11:47:27;3.80;99.90
55812;DHT22;41742;52.048;6.092;2022-12-08T11:50:10;3.80;99.90
55812;DHT22;41742;52.048;6.092;2022-12-08T11:52:44;3.80;99.90
55812;DHT22;41742;52.048;6.092;2022-12-08T11:57:46;3.90;99.90
55812;DHT22;41742;52.048;6.092;2022-12-08T12:00:15;3.90;99.90
55812;DHT22;41742;52.048;6.092;2022-12-08T12:02:44;3.90;99.90
55812;DHT22;41742;52.048;6.092;2022-12-08T12:05:22;3.90;99.90
55812;DHT22;41742;52.048;6.092;2022-12-08T12:10:36;3.90;99.90
55812;DHT22;41742;52.048;6.092;2022-12-08T12:18:43;4.00;99.90
55812;DHT22;41742;52.048;6.092;2022-12-08T12:23:58;4.00;99.90
55812;DHT22;41742;52.048;6.092;2022-12-08T12:26:27;4.00;99.90
55812;DHT22;41742;52.048;6.092;2022-12-08T12:29:06;4.10;99.90
55812;DHT22;41742;52.048;6.092;2022-12-08T12:31:38;4.10;99.90
55812;DHT22;41742;52.048;6.092;2022-12-08T12:37:06;4.00;99.90
55812;DHT22;41742;52.048;6.092;2022-12-08T12:40:04;4.00;99.90
55812;DHT22;41742;52.048;6.092;2022-12-08T12:47:52;4.00;99.90
55812;DHT22;41742;52.048;6.092;2022-12-08T12:50:47;4.10;99.90
55812;DHT22;41742;52.048;6.092;2022-12-08T13:03:42;4.10;99.90
55812;DHT22;41742;52.048;6.092;2022-12-08T13:06:10;4.10;99.90
55812;DHT22;41742;52.048;6.092;2022-12-08T13:08:39;4.10;99.90
55812;DHT22;41742;52.048;6.092;2022-12-08T13:11:08;4.20;99.90
55812;DHT22;41742;52.048;6.092;2022-12-08T13:13:35;4.20;99.90
55812;DHT22;41742;52.048;6.092;2022-12-08T13:18:40;4.10;99.90
55812;DHT22;41742;52.048;6.092;2022-12-08T13:26:22;4.10;99.90
55812;DHT22;41742;52.048;6.092;2022-12-08T13:47:47;4.00;99.90
55812;DHT22;41742;52.048;6.092;2022-12-08T13:50:17;4.00;99.90
55812;DHT22;41742;52.048;6.092;2022-12-08T13:52:52;4.00;99.90
55812;DHT22;41742;52.048;6.092;2022-12-08T13:55:27;4.00;99.90
55812;DHT22;41742;52.048;6.092;2022-12-08T13:57:54;4.00;99.90
55812;DHT22;41742;52.048;6.092;2022-12-08T14:00:21;4.00;99.90
55812;DHT22;41742;52.048;6.092;2022-12-08T14:02:48;4.00;99.90
55812;DHT22;41742;52.048;6.092;2022-12-08T14:05:16;4.00;99.90
55812;DHT22;41742;52.048;6.092;2022-12-08T14:07:43;4.00;99.90
55812;DHT22;41742;52.048;6.092;2022-12-08T14:10:28;4.10;99.90
55812;DHT22;41742;52.048;6.092;2022-12-08T14:12:59;4.10;99.90
55812;DHT22;41742;52.048;6.092;2022-12-08T14:15:26;4.00;99.90
55812;DHT22;41742;52.048;6.092;2022-12-08T14:17:54;4.00;99.90
55812;DHT22;41742;52.048;6.092;2022-12-08T14:20:32;4.00;99.90
55812;DHT22;41742;52.048;6.092;2022-12-08T14:22:58;4.00;99.90
55812;DHT22;41742;52.048;6.092;2022-12-08T14:25:28;4.00;99.90
55812;DHT22;41742;52.048;6.092;2022-12-08T14:27:59;4.10;99.90
55812;DHT22;41742;52.048;6.092;2022-12-08T14:30:33;4.00;99.90
55812;DHT22;41742;52.048;6.092;2022-12-08T14:33:03;4.00;99.90
55812;DHT22;41742;52.048;6.092;2022-12-08T14:35:34;4.00;99.90
55812;DHT22;41742;52.048;6.092;2022-12-08T14:38:11;4.00;99.90
55812;DHT22;41742;52.048;6.092;2022-12-08T14:45:53;3.90;99.90
55812;DHT22;41742;52.048;6.092;2022-12-08T14:48:40;3.90;99.90
55812;DHT22;41742;52.048;6.092;2022-12-08T14:54:05;3.80;99.90
55812;DHT22;41742;52.048;6.092;2022-12-08T14:56:36;3.80;99.90
55812;DHT22;41742;52.048;6.092;2022-12-08T15:01:38;3.60;99.90
55812;DHT22;41742;52.048;6.092;2022-12-08T15:04:14;3.60;99.90
55812;DHT22;41742;52.048;6.092;2022-12-08T15:09:39;3.40;99.90
55812;DHT22;41742;52.048;6.092;2022-12-08T15:14:40;3.40;99.90
55812;DHT22;41742;52.048;6.092;2022-12-08T15:19:55;3.20;99.90
55812;DHT22;41742;52.048;6.092;2022-12-08T15:22:21;3.20;99.90
55812;DHT22;41742;52.048;6.092;2022-12-08T15:24:47;3.20;99.90
55812;DHT22;41742;52.048;6.092;2022-12-08T15:27:18;3.10;99.90
55812;DHT22;41742;52.048;6.092;2022-12-08T15:29:45;3.10;99.90
55812;DHT22;41742;52.048;6.092;2022-12-08T15:32:11;3.10;99.90
55812;DHT22;41742;52.048;6.092;2022-12-08T15:34:37;3.10;99.90
55812;DHT22;41742;52.048;6.092;2022-12-08T15:37:03;3.10;99.90
55812;DHT22;41742;52.048;6.092;2022-12-08T15:39:30;3.00;99.90
55812;DHT22;41742;52.048;6.092;2022-12-08T15:41:58;3.00;99.90
55812;DHT22;41742;52.048;6.092;2022-12-08T15:44:24;3.00;99.90
55812;DHT22;41742;52.048;6.092;2022-12-08T15:46:50;3.00;99.90
55812;DHT22;41742;52.048;6.092;2022-12-08T15:49:18;3.10;99.90
55812;DHT22;41742;52.048;6.092;2022-12-08T15:51:44;3.10;99.90
55812;DHT22;41742;52.048;6.092;2022-12-08T15:54:10;3.10;99.90
55812;DHT22;41742;52.048;6.092;2022-12-08T15:56:41;3.10;99.90
55812;DHT22;41742;52.048;6.092;2022-12-08T15:59:17;3.10;99.90
55812;DHT22;41742;52.048;6.092;2022-12-08T16:01:44;3.00;99.90
55812;DHT22;41742;52.048;6.092;2022-12-08T16:04:19;3.10;99.90
55812;DHT22;41742;52.048;6.092;2022-12-08T16:06:47;3.10;99.90
55812;DHT22;41742;52.048;6.092;2022-12-08T16:09:51;3.10;99.90
55812;DHT22;41742;52.048;6.092;2022-12-08T16:12:20;3.10;99.90
55812;DHT22;41742;52.048;6.092;2022-12-08T16:15:24;3.10;99.90
55812;DHT22;41742;52.048;6.092;2022-12-08T16:17:50;3.00;99.90
55812;DHT22;41742;52.048;6.092;2022-12-08T16:20:16;3.00;99.90
55812;DHT22;41742;52.048;6.092;2022-12-08T16:22:43;3.00;99.90
55812;DHT22;41742;52.048;6.092;2022-12-08T16:25:09;3.00;99.90
55812;DHT22;41742;52.048;6.092;2022-12-08T16:27:38;3.00;99.90
55812;DHT22;41742;52.048;6.092;2022-12-08T16:30:06;3.00;99.90
55812;DHT22;41742;52.048;6.092;2022-12-08T16:32:32;3.00;99.90
55812;DHT22;41742;52.048;6.092;2022-12-08T16:34:58;2.90;99.90
55812;DHT22;41742;52.048;6.092;2022-12-08T16:37:25;2.90;99.90
55812;DHT22;41742;52.048;6.092;2022-12-08T16:39:55;3.00;99.90
55812;DHT22;41742;52.048;6.092;2022-12-08T16:42:24;3.00;99.90
55812;DHT22;41742;52.048;6.092;2022-12-08T16:45:20;3.00;99.90
55812;DHT22;41742;52.048;6.092;2022-12-08T16:47:49;3.00;99.90
55812;DHT22;41742;52.048;6.092;2022-12-08T16:50:19;2.90;99.90
55812;DHT22;41742;52.048;6.092;2022-12-08T16:52:45;2.90;99.90
55812;DHT22;41742;52.048;6.092;2022-12-08T16:55:16;2.90;99.90
55812;DHT22;41742;52.048;6.092;2022-12-08T16:57:43;2.90;99.90
55812;DHT22;41742;52.048;6.092;2022-12-08T17:00:12;2.90;99.90
55812;DHT22;41742;52.048;6.092;2022-12-08T17:03:04;2.90;99.90
55812;DHT22;41742;52.048;6.092;2022-12-08T17:05:30;2.90;99.90
55812;DHT22;41742;52.048;6.092;2022-12-08T17:07:56;2.90;99.90
55812;DHT22;41742;52.048;6.092;2022-12-08T17:10:27;2.90;99.90
55812;DHT22;41742;52.048;6.092;2022-12-08T17:12:54;2.90;99.90
55812;DHT22;41742;52.048;6.092;2022-12-08T17:15:23;3.00;99.90
55812;DHT22;41742;52.048;6.092;2022-12-08T17:17:49;2.90;99.90
55812;DHT22;41742;52.048;6.092;2022-12-08T17:20:17;2.90;99.90
55812;DHT22;41742;52.048;6.092;2022-12-08T17:22:44;3.00;99.90
55812;DHT22;41742;52.048;6.092;2022-12-08T17:25:10;3.00;99.90
55812;DHT22;41742;52.048;6.092;2022-12-08T17:27:36;3.00;99.90
55812;DHT22;41742;52.048;6.092;2022-12-08T17:30:06;3.00;99.90
55812;DHT22;41742;52.048;6.092;2022-12-08T17:32:32;3.00;99.90
55812;DHT22;41742;52.048;6.092;2022-12-08T17:34:57;3.00;99.90
55812;DHT22;41742;52.048;6.092;2022-12-08T17:37:23;3.00;99.90
55812;DHT22;41742;52.048;6.092;2022-12-08T17:39:49;3.10;99.90
55812;DHT22;41742;52.048;6.092;2022-12-08T17:42:14;3.00;99.90
55812;DHT22;41742;52.048;6.092;2022-12-08T17:44:40;3.00;99.90
55812;DHT22;41742;52.048;6.092;2022-12-08T17:47:06;3.00;99.90
55812;DHT22;41742;52.048;6.092;2022-12-08T17:49:31;3.00;99.90
55812;DHT22;41742;52.048;6.092;2022-12-08T17:52:01;3.00;99.90
55812;DHT22;41742;52.048;6.092;2022-12-08T17:54:27;3.10;99.90
55812;DHT22;41742;52.048;6.092;2022-12-08T17:56:54;3.00;99.90
55812;DHT22;41742;52.048;6.092;2022-12-08T17:59:23;3.10;99.90
55812;DHT22;41742;52.048;6.092;2022-12-08T18:01:51;3.20;99.90
55812;DHT22;41742;52.048;6.092;2022-12-08T18:04:17;3.20;99.90
55812;DHT22;41742;52.048;6.092;2022-12-08T18:06:43;3.20;99.90
55812;DHT22;41742;52.048;6.092;2022-12-08T18:09:08;3.10;99.90